sensor_id;sensor_type;location;lat;lon;timestamp;P1;durP1;ratioP1;P2;durP2;ratioP2
51326;SDS011;37412;52.836;6.362;2023-03-22T00:00:04;15.77;;;8.70;;
51326;SDS011;37412;52.836;6.362;2023-03-22T00:02:52;14.25;;;8.52;;
51326;SDS011;37412;52.836;6.362;2023-03-22T00:05:39;15.77;;;8.30;;
51326;SDS011;37412;52.836;6.362;2023-03-22T00:08:25;16.25;;;8.07;;
51326;SDS011;37412;52.836;6.362;2023-03-22T00:11:11;13.30;;;7.53;;
51326;SDS011;37412;52.836;6.362;2023-03-22T00:13:57;15.05;;;7.90;;
51326;SDS011;37412;52.836;6.362;2023-03-22T00:16:44;15.85;;;7.90;;
51326;SDS011;37412;52.836;6.362;2023-03-22T00:19:33;15.25;;;7.32;;
51326;SDS011;37412;52.836;6.362;2023-03-22T00:22:19;16.65;;;7.50;;
51326;SDS011;37412;52.836;6.362;2023-03-22T00:25:06;14.43;;;7.63;;
51326;SDS011;37412;52.836;6.362;2023-03-22T00:27:52;17.20;;;8.13;;
51326;SDS011;37412;52.836;6.362;2023-03-22T00:30:38;14.98;;;7.75;;
51326;SDS011;37412;52.836;6.362;2023-03-22T00:33:24;12.67;;;6.77;;
51326;SDS011;37412;52.836;6.362;2023-03-22T00:36:11;15.73;;;7.03;;
51326;SDS011;37412;52.836;6.362;2023-03-22T00:38:57;13.20;;;6.57;;
51326;SDS011;37412;52.836;6.362;2023-03-22T00:41:43;15.97;;;6.93;;
51326;SDS011;37412;52.836;6.362;2023-03-22T00:44:29;15.13;;;6.80;;
51326;SDS011;37412;52.836;6.362;2023-03-22T00:47:15;13.18;;;6.00;;
51326;SDS011;37412;52.836;6.362;2023-03-22T00:50:01;15.27;;;6.50;;
51326;SDS011;37412;52.836;6.362;2023-03-22T00:52:48;13.13;;;6.35;;
51326;SDS011;37412;52.836;6.362;2023-03-22T00:55:33;13.90;;;5.93;;
51326;SDS011;37412;52.836;6.362;2023-03-22T00:58:19;12.57;;;5.70;;
51326;SDS011;37412;52.836;6.362;2023-03-22T01:01:05;13.73;;;5.43;;
51326;SDS011;37412;52.836;6.362;2023-03-22T01:03:51;15.07;;;5.40;;
51326;SDS011;37412;52.836;6.362;2023-03-22T01:06:37;14.88;;;5.10;;
51326;SDS011;37412;52.836;6.362;2023-03-22T01:09:24;12.25;;;5.05;;
51326;SDS011;37412;52.836;6.362;2023-03-22T01:12:13;14.40;;;4.93;;
51326;SDS011;37412;52.836;6.362;2023-03-22T01:15:00;12.38;;;4.60;;
51326;SDS011;37412;52.836;6.362;2023-03-22T01:17:46;11.70;;;4.35;;
51326;SDS011;37412;52.836;6.362;2023-03-22T01:20:32;12.02;;;4.65;;
51326;SDS011;37412;52.836;6.362;2023-03-22T01:23:19;11.73;;;4.13;;
51326;SDS011;37412;52.836;6.362;2023-03-22T01:26:05;13.52;;;4.32;;
51326;SDS011;37412;52.836;6.362;2023-03-22T01:28:51;13.82;;;4.30;;
51326;SDS011;37412;52.836;6.362;2023-03-22T01:31:37;13.52;;;4.07;;
51326;SDS011;37412;52.836;6.362;2023-03-22T01:34:23;12.48;;;4.00;;
51326;SDS011;37412;52.836;6.362;2023-03-22T01:37:08;13.30;;;3.85;;
51326;SDS011;37412;52.836;6.362;2023-03-22T01:39:55;11.52;;;3.53;;
51326;SDS011;37412;52.836;6.362;2023-03-22T01:42:41;12.15;;;3.55;;
51326;SDS011;37412;52.836;6.362;2023-03-22T01:51:08;8.35;;;2.83;;
51326;SDS011;37412;52.836;6.362;2023-03-22T01:54:02;8.80;;;2.72;;
51326;SDS011;37412;52.836;6.362;2023-03-22T01:56:52;11.13;;;2.95;;
51326;SDS011;37412;52.836;6.362;2023-03-22T01:59:39;12.27;;;3.22;;
51326;SDS011;37412;52.836;6.362;2023-03-22T02:02:27;10.50;;;3.00;;
51326;SDS011;37412;52.836;6.362;2023-03-22T02:05:15;11.63;;;2.92;;
51326;SDS011;37412;52.836;6.362;2023-03-22T02:08:01;11.53;;;3.10;;
51326;SDS011;37412;52.836;6.362;2023-03-22T02:10:49;10.18;;;2.50;;
51326;SDS011;37412;52.836;6.362;2023-03-22T02:28:35;13.15;;;3.05;;
51326;SDS011;37412;52.836;6.362;2023-03-22T02:38:14;12.05;;;3.30;;
51326;SDS011;37412;52.836;6.362;2023-03-22T02:44:03;11.57;;;3.20;;
51326;SDS011;37412;52.836;6.362;2023-03-22T02:47:07;11.30;;;3.47;;
51326;SDS011;37412;52.836;6.362;2023-03-22T02:50:10;11.80;;;3.50;;
51326;SDS011;37412;52.836;6.362;2023-03-22T02:53:08;14.27;;;3.40;;
51326;SDS011;37412;52.836;6.362;2023-03-22T02:56:09;12.98;;;3.22;;
51326;SDS011;37412;52.836;6.362;2023-03-22T02:59:00;14.43;;;3.22;;
51326;SDS011;37412;52.836;6.362;2023-03-22T03:01:49;13.70;;;3.88;;
51326;SDS011;37412;52.836;6.362;2023-03-22T03:04:41;15.60;;;3.50;;
51326;SDS011;37412;52.836;6.362;2023-03-22T03:07:30;12.52;;;3.58;;
51326;SDS011;37412;52.836;6.362;2023-03-22T03:10:17;13.70;;;3.90;;
51326;SDS011;37412;52.836;6.362;2023-03-22T03:13:05;13.18;;;3.80;;
51326;SDS011;37412;52.836;6.362;2023-03-22T03:15:56;12.97;;;4.03;;
51326;SDS011;37412;52.836;6.362;2023-03-22T03:18:58;9.77;;;3.55;;
51326;SDS011;37412;52.836;6.362;2023-03-22T03:21:57;12.00;;;3.90;;
51326;SDS011;37412;52.836;6.362;2023-03-22T03:31:42;13.27;;;3.92;;
51326;SDS011;37412;52.836;6.362;2023-03-22T03:34:37;13.50;;;4.28;;
51326;SDS011;37412;52.836;6.362;2023-03-22T03:37:37;12.23;;;3.95;;
51326;SDS011;37412;52.836;6.362;2023-03-22T03:40:30;12.02;;;3.60;;
51326;SDS011;37412;52.836;6.362;2023-03-22T03:43:19;13.77;;;4.00;;
51326;SDS011;37412;52.836;6.362;2023-03-22T03:46:06;11.00;;;3.58;;
51326;SDS011;37412;52.836;6.362;2023-03-22T03:48:52;12.32;;;3.80;;
51326;SDS011;37412;52.836;6.362;2023-03-22T03:51:48;13.38;;;3.83;;
51326;SDS011;37412;52.836;6.362;2023-03-22T03:54:39;12.80;;;3.65;;
51326;SDS011;37412;52.836;6.362;2023-03-22T03:57:25;10.38;;;3.90;;
51326;SDS011;37412;52.836;6.362;2023-03-22T04:00:11;10.95;;;3.80;;
51326;SDS011;37412;52.836;6.362;2023-03-22T04:03:01;11.38;;;3.40;;
51326;SDS011;37412;52.836;6.362;2023-03-22T04:05:48;9.18;;;3.53;;
51326;SDS011;37412;52.836;6.362;2023-03-22T04:08:33;10.02;;;3.85;;
51326;SDS011;37412;52.836;6.362;2023-03-22T04:11:19;11.27;;;4.17;;
51326;SDS011;37412;52.836;6.362;2023-03-22T04:14:05;11.95;;;4.68;;
51326;SDS011;37412;52.836;6.362;2023-03-22T04:16:51;15.02;;;4.75;;
51326;SDS011;37412;52.836;6.362;2023-03-22T04:19:38;13.73;;;5.35;;
51326;SDS011;37412;52.836;6.362;2023-03-22T04:22:24;11.80;;;5.75;;
51326;SDS011;37412;52.836;6.362;2023-03-22T04:25:11;12.60;;;6.33;;
51326;SDS011;37412;52.836;6.362;2023-03-22T04:27:58;14.65;;;6.75;;
51326;SDS011;37412;52.836;6.362;2023-03-22T04:30:45;14.80;;;7.35;;
51326;SDS011;37412;52.836;6.362;2023-03-22T04:33:35;14.63;;;7.70;;
51326;SDS011;37412;52.836;6.362;2023-03-22T04:36:23;14.70;;;8.70;;
51326;SDS011;37412;52.836;6.362;2023-03-22T04:39:10;15.63;;;8.38;;
51326;SDS011;37412;52.836;6.362;2023-03-22T04:41:56;16.15;;;9.27;;
51326;SDS011;37412;52.836;6.362;2023-03-22T04:44:42;17.08;;;9.57;;
51326;SDS011;37412;52.836;6.362;2023-03-22T04:47:28;17.40;;;9.80;;
51326;SDS011;37412;52.836;6.362;2023-03-22T04:50:14;14.80;;;9.80;;
51326;SDS011;37412;52.836;6.362;2023-03-22T04:53:00;17.30;;;10.52;;
51326;SDS011;37412;52.836;6.362;2023-03-22T04:55:47;18.80;;;11.02;;
51326;SDS011;37412;52.836;6.362;2023-03-22T04:58:33;18.35;;;11.32;;
51326;SDS011;37412;52.836;6.362;2023-03-22T05:01:21;17.13;;;11.25;;
51326;SDS011;37412;52.836;6.362;2023-03-22T05:04:07;20.00;;;11.43;;
51326;SDS011;37412;52.836;6.362;2023-03-22T05:06:53;19.48;;;12.23;;
51326;SDS011;37412;52.836;6.362;2023-03-22T05:09:39;17.67;;;12.60;;
51326;SDS011;37412;52.836;6.362;2023-03-22T05:12:25;20.30;;;12.48;;
51326;SDS011;37412;52.836;6.362;2023-03-22T05:15:11;21.02;;;12.60;;
51326;SDS011;37412;52.836;6.362;2023-03-22T05:17:57;21.65;;;13.80;;
51326;SDS011;37412;52.836;6.362;2023-03-22T05:20:43;20.00;;;13.38;;
51326;SDS011;37412;52.836;6.362;2023-03-22T05:23:29;20.65;;;14.00;;
51326;SDS011;37412;52.836;6.362;2023-03-22T05:26:15;21.07;;;14.43;;
51326;SDS011;37412;52.836;6.362;2023-03-22T05:29:04;19.80;;;13.77;;
51326;SDS011;37412;52.836;6.362;2023-03-22T05:31:50;18.90;;;14.35;;
51326;SDS011;37412;52.836;6.362;2023-03-22T05:34:37;19.60;;;14.43;;
51326;SDS011;37412;52.836;6.362;2023-03-22T05:37:24;21.15;;;14.80;;
51326;SDS011;37412;52.836;6.362;2023-03-22T05:40:10;21.33;;;13.93;;
51326;SDS011;37412;52.836;6.362;2023-03-22T05:42:56;22.98;;;14.55;;
51326;SDS011;37412;52.836;6.362;2023-03-22T05:45:42;20.63;;;14.75;;
51326;SDS011;37412;52.836;6.362;2023-03-22T05:48:30;22.88;;;14.57;;
51326;SDS011;37412;52.836;6.362;2023-03-22T05:51:16;22.38;;;14.00;;
51326;SDS011;37412;52.836;6.362;2023-03-22T05:54:03;24.15;;;14.40;;
51326;SDS011;37412;52.836;6.362;2023-03-22T05:56:51;22.25;;;14.45;;
51326;SDS011;37412;52.836;6.362;2023-03-22T05:59:37;24.20;;;14.68;;
51326;SDS011;37412;52.836;6.362;2023-03-22T06:02:24;20.67;;;14.00;;
51326;SDS011;37412;52.836;6.362;2023-03-22T06:05:10;19.02;;;13.52;;
51326;SDS011;37412;52.836;6.362;2023-03-22T06:07:57;20.25;;;14.55;;
51326;SDS011;37412;52.836;6.362;2023-03-22T06:10:43;20.08;;;13.60;;
51326;SDS011;37412;52.836;6.362;2023-03-22T06:13:32;21.88;;;14.18;;
51326;SDS011;37412;52.836;6.362;2023-03-22T06:16:18;20.85;;;13.90;;
51326;SDS011;37412;52.836;6.362;2023-03-22T06:19:04;20.85;;;13.02;;
51326;SDS011;37412;52.836;6.362;2023-03-22T06:21:55;18.55;;;12.50;;
51326;SDS011;37412;52.836;6.362;2023-03-22T06:24:40;19.35;;;13.70;;
51326;SDS011;37412;52.836;6.362;2023-03-22T06:27:26;22.38;;;13.68;;
51326;SDS011;37412;52.836;6.362;2023-03-22T06:30:13;20.87;;;13.10;;
51326;SDS011;37412;52.836;6.362;2023-03-22T06:32:59;20.65;;;13.43;;
51326;SDS011;37412;52.836;6.362;2023-03-22T06:35:48;19.70;;;12.10;;
51326;SDS011;37412;52.836;6.362;2023-03-22T06:38:34;18.83;;;12.53;;
51326;SDS011;37412;52.836;6.362;2023-03-22T06:41:20;18.52;;;12.80;;
51326;SDS011;37412;52.836;6.362;2023-03-22T06:44:06;18.67;;;12.07;;
51326;SDS011;37412;52.836;6.362;2023-03-22T06:46:52;18.55;;;12.18;;
51326;SDS011;37412;52.836;6.362;2023-03-22T06:49:38;18.00;;;11.53;;
51326;SDS011;37412;52.836;6.362;2023-03-22T06:52:24;18.33;;;11.43;;
51326;SDS011;37412;52.836;6.362;2023-03-22T06:55:10;19.30;;;11.40;;
51326;SDS011;37412;52.836;6.362;2023-03-22T06:57:56;17.50;;;10.98;;
51326;SDS011;37412;52.836;6.362;2023-03-22T07:00:42;17.30;;;10.88;;
51326;SDS011;37412;52.836;6.362;2023-03-22T07:03:28;16.88;;;10.50;;
51326;SDS011;37412;52.836;6.362;2023-03-22T07:06:14;15.93;;;10.67;;
51326;SDS011;37412;52.836;6.362;2023-03-22T07:09:00;16.55;;;9.90;;
51326;SDS011;37412;52.836;6.362;2023-03-22T07:11:46;14.55;;;9.45;;
51326;SDS011;37412;52.836;6.362;2023-03-22T07:14:32;16.20;;;9.52;;
51326;SDS011;37412;52.836;6.362;2023-03-22T07:17:18;15.63;;;9.13;;
51326;SDS011;37412;52.836;6.362;2023-03-22T07:20:07;15.38;;;8.95;;
51326;SDS011;37412;52.836;6.362;2023-03-22T07:22:53;14.30;;;8.70;;
51326;SDS011;37412;52.836;6.362;2023-03-22T07:25:39;14.40;;;8.45;;
51326;SDS011;37412;52.836;6.362;2023-03-22T07:28:26;15.05;;;8.60;;
51326;SDS011;37412;52.836;6.362;2023-03-22T07:31:12;13.10;;;8.45;;
51326;SDS011;37412;52.836;6.362;2023-03-22T07:33:58;14.88;;;8.30;;
51326;SDS011;37412;52.836;6.362;2023-03-22T07:36:44;15.50;;;8.13;;
51326;SDS011;37412;52.836;6.362;2023-03-22T07:39:33;13.13;;;7.55;;
51326;SDS011;37412;52.836;6.362;2023-03-22T07:42:19;15.97;;;7.70;;
51326;SDS011;37412;52.836;6.362;2023-03-22T07:45:05;13.85;;;7.63;;
51326;SDS011;37412;52.836;6.362;2023-03-22T07:47:52;13.80;;;7.13;;
51326;SDS011;37412;52.836;6.362;2023-03-22T07:50:38;15.85;;;7.32;;
51326;SDS011;37412;52.836;6.362;2023-03-22T07:53:24;15.45;;;7.55;;
51326;SDS011;37412;52.836;6.362;2023-03-22T07:56:10;14.95;;;7.18;;
51326;SDS011;37412;52.836;6.362;2023-03-22T07:58:56;15.68;;;7.43;;
51326;SDS011;37412;52.836;6.362;2023-03-22T08:01:43;13.98;;;6.22;;
51326;SDS011;37412;52.836;6.362;2023-03-22T08:04:29;13.25;;;6.72;;
51326;SDS011;37412;52.836;6.362;2023-03-22T08:07:15;13.90;;;6.45;;
51326;SDS011;37412;52.836;6.362;2023-03-22T08:10:03;11.07;;;6.00;;
51326;SDS011;37412;52.836;6.362;2023-03-22T08:12:49;12.93;;;6.55;;
51326;SDS011;37412;52.836;6.362;2023-03-22T08:15:35;12.77;;;6.53;;
51326;SDS011;37412;52.836;6.362;2023-03-22T08:18:22;11.75;;;6.03;;
51326;SDS011;37412;52.836;6.362;2023-03-22T08:21:08;15.32;;;6.20;;
51326;SDS011;37412;52.836;6.362;2023-03-22T08:23:55;16.08;;;6.60;;
51326;SDS011;37412;52.836;6.362;2023-03-22T08:26:41;12.57;;;5.57;;
51326;SDS011;37412;52.836;6.362;2023-03-22T08:29:30;12.00;;;5.30;;
51326;SDS011;37412;52.836;6.362;2023-03-22T08:32:16;12.93;;;5.55;;
51326;SDS011;37412;52.836;6.362;2023-03-22T08:35:05;13.82;;;5.70;;
51326;SDS011;37412;52.836;6.362;2023-03-22T08:37:52;14.63;;;5.43;;
51326;SDS011;37412;52.836;6.362;2023-03-22T08:40:39;13.15;;;5.35;;
51326;SDS011;37412;52.836;6.362;2023-03-22T08:43:25;13.23;;;5.13;;
51326;SDS011;37412;52.836;6.362;2023-03-22T08:46:11;14.65;;;5.18;;
51326;SDS011;37412;52.836;6.362;2023-03-22T08:48:57;14.00;;;5.50;;
51326;SDS011;37412;52.836;6.362;2023-03-22T08:51:45;12.27;;;5.07;;
51326;SDS011;37412;52.836;6.362;2023-03-22T08:54:31;13.68;;;5.00;;
51326;SDS011;37412;52.836;6.362;2023-03-22T08:57:18;12.75;;;4.95;;
51326;SDS011;37412;52.836;6.362;2023-03-22T09:00:06;11.85;;;4.88;;
51326;SDS011;37412;52.836;6.362;2023-03-22T09:02:54;12.13;;;4.90;;
51326;SDS011;37412;52.836;6.362;2023-03-22T09:05:41;14.80;;;5.30;;
51326;SDS011;37412;52.836;6.362;2023-03-22T09:08:27;14.07;;;4.80;;
51326;SDS011;37412;52.836;6.362;2023-03-22T09:11:13;14.43;;;4.97;;
51326;SDS011;37412;52.836;6.362;2023-03-22T09:13:59;13.45;;;4.90;;
51326;SDS011;37412;52.836;6.362;2023-03-22T09:16:45;14.82;;;5.10;;
51326;SDS011;37412;52.836;6.362;2023-03-22T09:19:31;11.47;;;4.07;;
51326;SDS011;37412;52.836;6.362;2023-03-22T09:22:17;11.48;;;4.10;;
51326;SDS011;37412;52.836;6.362;2023-03-22T09:25:04;13.23;;;4.20;;
51326;SDS011;37412;52.836;6.362;2023-03-22T09:27:50;13.93;;;4.60;;
51326;SDS011;37412;52.836;6.362;2023-03-22T09:30:36;12.13;;;4.20;;
51326;SDS011;37412;52.836;6.362;2023-03-22T09:33:22;10.13;;;4.15;;
51326;SDS011;37412;52.836;6.362;2023-03-22T09:36:08;9.15;;;3.47;;
51326;SDS011;37412;52.836;6.362;2023-03-22T09:38:56;12.43;;;4.00;;
51326;SDS011;37412;52.836;6.362;2023-03-22T09:41:45;11.77;;;3.87;;
51326;SDS011;37412;52.836;6.362;2023-03-22T09:44:43;12.50;;;4.47;;
51326;SDS011;37412;52.836;6.362;2023-03-22T09:47:36;13.13;;;4.75;;
51326;SDS011;37412;52.836;6.362;2023-03-22T09:50:26;11.10;;;3.97;;
51326;SDS011;37412;52.836;6.362;2023-03-22T09:53:15;10.45;;;3.80;;
51326;SDS011;37412;52.836;6.362;2023-03-22T10:02:01;13.35;;;4.53;;
51326;SDS011;37412;52.836;6.362;2023-03-22T10:17:50;11.02;;;4.05;;
51326;SDS011;37412;52.836;6.362;2023-03-22T10:20:41;12.05;;;3.90;;
51326;SDS011;37412;52.836;6.362;2023-03-22T10:23:40;10.30;;;3.90;;
51326;SDS011;37412;52.836;6.362;2023-03-22T10:26:44;10.00;;;3.70;;
51326;SDS011;37412;52.836;6.362;2023-03-22T10:29:33;13.70;;;4.30;;
51326;SDS011;37412;52.836;6.362;2023-03-22T10:32:33;11.10;;;3.93;;
51326;SDS011;37412;52.836;6.362;2023-03-22T10:35:21;11.40;;;3.90;;
51326;SDS011;37412;52.836;6.362;2023-03-22T10:38:08;9.13;;;3.97;;
51326;SDS011;37412;52.836;6.362;2023-03-22T10:41:06;10.23;;;3.90;;
51326;SDS011;37412;52.836;6.362;2023-03-22T10:43:54;12.30;;;4.03;;
51326;SDS011;37412;52.836;6.362;2023-03-22T10:46:47;12.57;;;4.20;;
51326;SDS011;37412;52.836;6.362;2023-03-22T10:49:38;11.20;;;4.35;;
51326;SDS011;37412;52.836;6.362;2023-03-22T10:55:15;11.83;;;4.20;;
51326;SDS011;37412;52.836;6.362;2023-03-22T11:01:06;11.57;;;4.38;;
51326;SDS011;37412;52.836;6.362;2023-03-22T11:03:56;10.65;;;4.30;;
51326;SDS011;37412;52.836;6.362;2023-03-22T11:06:52;13.23;;;4.45;;
51326;SDS011;37412;52.836;6.362;2023-03-22T11:09:38;12.73;;;4.80;;
51326;SDS011;37412;52.836;6.362;2023-03-22T11:12:23;12.32;;;4.80;;
51326;SDS011;37412;52.836;6.362;2023-03-22T11:15:21;10.43;;;4.43;;
51326;SDS011;37412;52.836;6.362;2023-03-22T11:18:14;10.55;;;4.28;;
51326;SDS011;37412;52.836;6.362;2023-03-22T11:21:08;10.43;;;4.18;;
51326;SDS011;37412;52.836;6.362;2023-03-22T11:24:01;12.35;;;4.15;;
51326;SDS011;37412;52.836;6.362;2023-03-22T11:27:16;11.88;;;4.13;;
51326;SDS011;37412;52.836;6.362;2023-03-22T11:30:19;11.57;;;4.22;;
51326;SDS011;37412;52.836;6.362;2023-03-22T11:33:17;9.68;;;4.00;;
51326;SDS011;37412;52.836;6.362;2023-03-22T11:36:16;12.85;;;3.80;;
51326;SDS011;37412;52.836;6.362;2023-03-22T11:39:05;9.75;;;3.30;;
51326;SDS011;37412;52.836;6.362;2023-03-22T11:41:52;7.13;;;3.47;;
51326;SDS011;37412;52.836;6.362;2023-03-22T11:44:44;7.68;;;2.80;;
51326;SDS011;37412;52.836;6.362;2023-03-22T11:47:31;7.00;;;3.10;;
51326;SDS011;37412;52.836;6.362;2023-03-22T11:50:27;9.80;;;3.80;;
51326;SDS011;37412;52.836;6.362;2023-03-22T11:53:24;9.88;;;3.53;;
51326;SDS011;37412;52.836;6.362;2023-03-22T11:56:15;8.77;;;3.90;;
51326;SDS011;37412;52.836;6.362;2023-03-22T11:59:08;7.87;;;3.60;;
51326;SDS011;37412;52.836;6.362;2023-03-22T12:05:36;15.38;;;7.65;;
51326;SDS011;37412;52.836;6.362;2023-03-22T12:11:28;15.03;;;7.60;;
51326;SDS011;37412;52.836;6.362;2023-03-22T12:14:25;10.93;;;4.35;;
51326;SDS011;37412;52.836;6.362;2023-03-22T12:17:22;9.73;;;3.88;;
51326;SDS011;37412;52.836;6.362;2023-03-22T12:23:17;9.37;;;3.97;;
51326;SDS011;37412;52.836;6.362;2023-03-22T12:26:06;10.32;;;3.80;;
51326;SDS011;37412;52.836;6.362;2023-03-22T12:29:07;9.43;;;3.38;;
51326;SDS011;37412;52.836;6.362;2023-03-22T12:32:20;11.07;;;3.80;;
51326;SDS011;37412;52.836;6.362;2023-03-22T12:35:17;8.37;;;3.37;;
51326;SDS011;37412;52.836;6.362;2023-03-22T12:41:13;13.52;;;6.80;;
51326;SDS011;37412;52.836;6.362;2023-03-22T12:44:09;10.73;;;3.95;;
51326;SDS011;37412;52.836;6.362;2023-03-22T12:47:03;10.88;;;3.90;;
51326;SDS011;37412;52.836;6.362;2023-03-22T12:50:12;8.43;;;3.97;;
51326;SDS011;37412;52.836;6.362;2023-03-22T12:53:10;7.37;;;3.70;;
51326;SDS011;37412;52.836;6.362;2023-03-22T12:55:59;9.67;;;4.00;;
51326;SDS011;37412;52.836;6.362;2023-03-22T12:58:47;11.57;;;4.40;;
51326;SDS011;37412;52.836;6.362;2023-03-22T13:01:38;12.70;;;4.30;;
51326;SDS011;37412;52.836;6.362;2023-03-22T13:18:56;13.00;;;6.13;;
51326;SDS011;37412;52.836;6.362;2023-03-22T13:21:44;14.10;;;5.95;;
51326;SDS011;37412;52.836;6.362;2023-03-22T13:24:34;11.02;;;5.20;;
51326;SDS011;37412;52.836;6.362;2023-03-22T13:27:50;11.80;;;5.82;;
51326;SDS011;37412;52.836;6.362;2023-03-22T13:30:51;11.52;;;5.50;;
51326;SDS011;37412;52.836;6.362;2023-03-22T13:33:41;14.38;;;6.60;;
51326;SDS011;37412;52.836;6.362;2023-03-22T13:36:28;11.82;;;5.82;;
51326;SDS011;37412;52.836;6.362;2023-03-22T13:39:16;10.75;;;5.50;;
51326;SDS011;37412;52.836;6.362;2023-03-22T13:42:05;11.45;;;6.13;;
51326;SDS011;37412;52.836;6.362;2023-03-22T13:45:02;12.90;;;6.15;;
51326;SDS011;37412;52.836;6.362;2023-03-22T13:51:27;10.55;;;5.20;;
51326;SDS011;37412;52.836;6.362;2023-03-22T13:54:17;11.57;;;5.50;;
51326;SDS011;37412;52.836;6.362;2023-03-22T14:00:33;11.88;;;5.78;;
51326;SDS011;37412;52.836;6.362;2023-03-22T14:03:25;12.70;;;6.63;;
51326;SDS011;37412;52.836;6.362;2023-03-22T14:06:24;12.50;;;6.10;;
51326;SDS011;37412;52.836;6.362;2023-03-22T14:09:24;11.32;;;5.97;;
51326;SDS011;37412;52.836;6.362;2023-03-22T14:12:18;12.75;;;7.53;;
51326;SDS011;37412;52.836;6.362;2023-03-22T14:15:10;9.30;;;5.38;;
51326;SDS011;37412;52.836;6.362;2023-03-22T14:18:11;9.88;;;5.93;;
51326;SDS011;37412;52.836;6.362;2023-03-22T14:21:06;9.98;;;5.60;;
51326;SDS011;37412;52.836;6.362;2023-03-22T14:23:56;11.35;;;5.80;;
51326;SDS011;37412;52.836;6.362;2023-03-22T14:26:52;12.87;;;6.10;;
51326;SDS011;37412;52.836;6.362;2023-03-22T14:29:44;11.35;;;5.68;;
51326;SDS011;37412;52.836;6.362;2023-03-22T14:32:31;11.10;;;6.07;;
51326;SDS011;37412;52.836;6.362;2023-03-22T14:35:18;9.70;;;6.10;;
51326;SDS011;37412;52.836;6.362;2023-03-22T14:38:18;11.35;;;5.63;;
51326;SDS011;37412;52.836;6.362;2023-03-22T14:41:16;11.98;;;5.60;;
51326;SDS011;37412;52.836;6.362;2023-03-22T14:44:09;13.15;;;5.75;;
51326;SDS011;37412;52.836;6.362;2023-03-22T14:47:00;13.40;;;5.50;;
51326;SDS011;37412;52.836;6.362;2023-03-22T14:49:49;11.60;;;5.63;;
51326;SDS011;37412;52.836;6.362;2023-03-22T14:52:38;9.52;;;5.85;;
51326;SDS011;37412;52.836;6.362;2023-03-22T14:55:25;12.05;;;5.60;;
51326;SDS011;37412;52.836;6.362;2023-03-22T14:58:13;8.55;;;5.28;;
51326;SDS011;37412;52.836;6.362;2023-03-22T15:01:01;11.73;;;5.75;;
51326;SDS011;37412;52.836;6.362;2023-03-22T15:03:50;8.00;;;5.65;;
51326;SDS011;37412;52.836;6.362;2023-03-22T15:06:43;9.10;;;5.60;;
51326;SDS011;37412;52.836;6.362;2023-03-22T15:09:40;10.02;;;5.45;;
51326;SDS011;37412;52.836;6.362;2023-03-22T15:12:26;7.78;;;5.47;;
51326;SDS011;37412;52.836;6.362;2023-03-22T15:15:12;9.18;;;5.75;;
51326;SDS011;37412;52.836;6.362;2023-03-22T15:17:59;9.10;;;5.32;;
51326;SDS011;37412;52.836;6.362;2023-03-22T15:20:47;10.55;;;5.63;;
51326;SDS011;37412;52.836;6.362;2023-03-22T15:23:36;9.40;;;5.72;;
51326;SDS011;37412;52.836;6.362;2023-03-22T15:26:39;8.23;;;5.22;;
51326;SDS011;37412;52.836;6.362;2023-03-22T15:29:26;10.15;;;5.88;;
51326;SDS011;37412;52.836;6.362;2023-03-22T15:32:15;11.82;;;5.80;;
51326;SDS011;37412;52.836;6.362;2023-03-22T15:35:03;8.82;;;5.50;;
51326;SDS011;37412;52.836;6.362;2023-03-22T15:37:52;9.98;;;5.07;;
51326;SDS011;37412;52.836;6.362;2023-03-22T15:40:42;11.10;;;5.53;;
51326;SDS011;37412;52.836;6.362;2023-03-22T15:43:31;9.98;;;5.35;;
51326;SDS011;37412;52.836;6.362;2023-03-22T15:46:19;9.75;;;5.95;;
51326;SDS011;37412;52.836;6.362;2023-03-22T15:49:16;10.05;;;6.32;;
51326;SDS011;37412;52.836;6.362;2023-03-22T15:52:13;11.05;;;6.40;;
51326;SDS011;37412;52.836;6.362;2023-03-22T15:55:16;10.07;;;6.68;;
51326;SDS011;37412;52.836;6.362;2023-03-22T15:58:04;10.83;;;6.93;;
51326;SDS011;37412;52.836;6.362;2023-03-22T16:01:06;12.95;;;7.03;;
51326;SDS011;37412;52.836;6.362;2023-03-22T16:03:58;10.63;;;7.20;;
51326;SDS011;37412;52.836;6.362;2023-03-22T16:06:54;11.60;;;7.35;;
51326;SDS011;37412;52.836;6.362;2023-03-22T16:09:40;12.48;;;7.05;;
51326;SDS011;37412;52.836;6.362;2023-03-22T16:12:26;11.50;;;7.78;;
51326;SDS011;37412;52.836;6.362;2023-03-22T16:15:18;15.00;;;10.32;;
51326;SDS011;37412;52.836;6.362;2023-03-22T16:18:11;13.15;;;7.97;;
51326;SDS011;37412;52.836;6.362;2023-03-22T16:21:00;10.60;;;7.47;;
51326;SDS011;37412;52.836;6.362;2023-03-22T16:23:47;13.17;;;8.03;;
51326;SDS011;37412;52.836;6.362;2023-03-22T16:26:33;12.18;;;8.23;;
51326;SDS011;37412;52.836;6.362;2023-03-22T16:29:19;13.73;;;7.63;;
51326;SDS011;37412;52.836;6.362;2023-03-22T16:32:41;13.23;;;7.97;;
51326;SDS011;37412;52.836;6.362;2023-03-22T16:35:21;13.10;;;8.20;;
51326;SDS011;37412;52.836;6.362;2023-03-22T16:38:15;10.57;;;7.50;;
51326;SDS011;37412;52.836;6.362;2023-03-22T16:41:02;12.43;;;8.32;;
51326;SDS011;37412;52.836;6.362;2023-03-22T16:43:50;12.57;;;8.87;;
51326;SDS011;37412;52.836;6.362;2023-03-22T16:46:36;13.25;;;8.45;;
51326;SDS011;37412;52.836;6.362;2023-03-22T16:49:22;12.87;;;8.33;;
51326;SDS011;37412;52.836;6.362;2023-03-22T16:52:11;15.27;;;8.38;;
51326;SDS011;37412;52.836;6.362;2023-03-22T16:55:02;13.32;;;8.63;;
51326;SDS011;37412;52.836;6.362;2023-03-22T16:58:01;14.88;;;9.43;;
51326;SDS011;37412;52.836;6.362;2023-03-22T17:00:47;12.35;;;8.70;;
51326;SDS011;37412;52.836;6.362;2023-03-22T17:03:33;11.88;;;8.85;;
51326;SDS011;37412;52.836;6.362;2023-03-22T17:06:20;12.07;;;8.60;;
51326;SDS011;37412;52.836;6.362;2023-03-22T17:09:08;12.27;;;8.52;;
51326;SDS011;37412;52.836;6.362;2023-03-22T17:11:53;11.38;;;8.32;;
51326;SDS011;37412;52.836;6.362;2023-03-22T17:14:39;13.03;;;8.33;;
51326;SDS011;37412;52.836;6.362;2023-03-22T17:17:25;10.93;;;8.75;;
51326;SDS011;37412;52.836;6.362;2023-03-22T17:20:12;12.68;;;8.45;;
51326;SDS011;37412;52.836;6.362;2023-03-22T17:22:59;9.38;;;7.88;;
51326;SDS011;37412;52.836;6.362;2023-03-22T17:25:45;11.60;;;8.73;;
51326;SDS011;37412;52.836;6.362;2023-03-22T17:28:33;10.15;;;7.85;;
51326;SDS011;37412;52.836;6.362;2023-03-22T17:31:19;10.17;;;7.97;;
51326;SDS011;37412;52.836;6.362;2023-03-22T17:34:05;11.18;;;8.02;;
51326;SDS011;37412;52.836;6.362;2023-03-22T17:36:51;9.02;;;7.70;;
51326;SDS011;37412;52.836;6.362;2023-03-22T17:39:38;9.65;;;7.47;;
51326;SDS011;37412;52.836;6.362;2023-03-22T17:42:25;9.65;;;8.20;;
51326;SDS011;37412;52.836;6.362;2023-03-22T17:45:19;9.70;;;8.23;;
51326;SDS011;37412;52.836;6.362;2023-03-22T17:48:11;9.55;;;8.00;;
51326;SDS011;37412;52.836;6.362;2023-03-22T17:50:57;8.82;;;7.85;;
51326;SDS011;37412;52.836;6.362;2023-03-22T17:53:42;9.13;;;8.23;;
51326;SDS011;37412;52.836;6.362;2023-03-22T17:56:28;9.32;;;8.10;;
51326;SDS011;37412;52.836;6.362;2023-03-22T17:59:14;8.68;;;7.72;;
51326;SDS011;37412;52.836;6.362;2023-03-22T18:02:01;9.38;;;8.38;;
51326;SDS011;37412;52.836;6.362;2023-03-22T18:04:47;9.75;;;8.70;;
51326;SDS011;37412;52.836;6.362;2023-03-22T18:07:33;9.88;;;8.63;;
51326;SDS011;37412;52.836;6.362;2023-03-22T18:10:19;12.20;;;9.93;;
51326;SDS011;37412;52.836;6.362;2023-03-22T18:13:06;11.32;;;9.57;;
51326;SDS011;37412;52.836;6.362;2023-03-22T18:15:51;10.48;;;9.35;;
51326;SDS011;37412;52.836;6.362;2023-03-22T18:18:37;11.85;;;10.55;;